createdAt,value
2022-08-29T00:00:57.906Z,92.84
2022-08-29T00:01:58.032Z,92.89
2022-08-29T00:02:58.209Z,92.79
2022-08-29T00:03:58.319Z,92.79
2022-08-29T00:04:58.410Z,92.79
2022-08-29T00:05:58.582Z,92.79
2022-08-29T00:06:58.691Z,92.89
2022-08-29T00:07:58.789Z,92.79
2022-08-29T00:08:58.951Z,92.79
2022-08-29T00:09:59.040Z,92.89
2022-08-29T00:10:59.263Z,93.44
2022-08-29T00:11:59.262Z,93.85
2022-08-29T00:12:59.439Z,94.05
2022-08-29T00:13:59.540Z,94.26
2022-08-29T00:14:59.711Z,94.50
2022-08-29T00:15:59.778Z,94.81
2022-08-29T00:16:59.975Z,95.01
2022-08-29T00:18:00.095Z,95.01
2022-08-29T00:19:00.244Z,95.21
2022-08-29T00:20:00.475Z,95.32
2022-08-29T00:21:00.602Z,95.62
2022-08-29T00:22:00.609Z,95.93
2022-08-29T00:23:00.750Z,95.93
2022-08-29T00:24:00.880Z,95.73
2022-08-29T00:25:01.027Z,95.73
2022-08-29T00:26:01.119Z,95.83
2022-08-29T00:27:01.289Z,96.03
2022-08-29T00:28:01.467Z,95.93
2022-08-29T00:29:01.608Z,95.83
2022-08-29T00:30:01.655Z,95.83
2022-08-29T00:31:01.803Z,95.73
2022-08-29T00:32:01.981Z,95.83
2022-08-29T00:33:02.052Z,95.93
2022-08-29T00:34:02.157Z,96.03
2022-08-29T00:35:02.272Z,96.14
2022-08-29T00:36:02.386Z,96.18
2022-08-29T00:37:02.516Z,96.28
2022-08-29T00:38:02.621Z,96.28
2022-08-29T00:39:02.803Z,96.28
2022-08-29T00:40:02.967Z,96.23
2022-08-29T00:41:03.067Z,95.93
2022-08-29T00:42:03.165Z,95.62
2022-08-29T00:43:03.369Z,95.62
2022-08-29T00:44:03.458Z,95.97
2022-08-29T00:45:03.577Z,96.08
2022-08-29T00:46:03.779Z,96.38
2022-08-29T00:47:03.867Z,96.59
2022-08-29T00:48:04.027Z,96.69
2022-08-29T00:49:04.183Z,96.69
2022-08-29T00:50:04.279Z,97.04
2022-08-29T00:51:04.452Z,97.45
2022-08-29T00:52:04.683Z,97.65
2022-08-29T00:53:04.732Z,97.86
2022-08-29T00:54:04.808Z,97.96
2022-08-29T00:55:04.946Z,97.86
2022-08-29T00:56:05.095Z,97.96
2022-08-29T00:57:05.256Z,98.06
2022-08-29T00:58:05.376Z,98.16
2022-08-29T00:59:05.551Z,98.27
2022-08-29T01:00:05.635Z,98.27
2022-08-29T01:01:05.790Z,98.36
2022-08-29T01:02:05.942Z,98.41
2022-08-29T01:03:06.088Z,98.41
2022-08-29T01:04:06.155Z,98.41
2022-08-29T01:05:06.288Z,98.16
2022-08-29T01:06:06.397Z,98.27
2022-08-29T01:07:06.567Z,98.16
2022-08-29T01:08:06.804Z,98.06
2022-08-29T01:09:06.785Z,97.96
2022-08-29T01:10:13.343Z,97.80
2022-08-29T01:11:08.005Z,97.90
2022-08-29T01:12:07.116Z,98.11
2022-08-29T01:13:07.274Z,98.21
2022-08-29T01:14:07.374Z,98.46
2022-08-29T01:15:07.537Z,98.56
2022-08-29T01:16:07.713Z,98.77
2022-08-29T01:17:07.821Z,99.18
2022-08-29T01:18:07.955Z,99.48
2022-08-29T01:19:08.004Z,99.58
2022-08-29T01:20:08.233Z,99.84
2022-08-29T01:21:08.277Z,99.99
2022-08-29T01:22:08.405Z,99.99
2022-08-29T01:23:08.553Z,99.99
2022-08-29T01:24:08.732Z,99.99
2022-08-29T01:25:08.847Z,99.99
2022-08-29T01:26:08.962Z,99.99
2022-08-29T01:27:09.116Z,99.99
2022-08-29T01:28:09.278Z,99.99
2022-08-29T01:29:09.375Z,99.99
2022-08-29T01:30:09.441Z,99.99
2022-08-29T01:31:09.675Z,99.68
2022-08-29T01:32:09.763Z,99.68
2022-08-29T01:33:09.862Z,99.79
2022-08-29T01:34:09.966Z,99.48
2022-08-29T01:35:10.123Z,99.27
2022-08-29T01:36:10.316Z,99.27
2022-08-29T01:37:10.403Z,99.27
2022-08-29T01:38:10.556Z,99.18
2022-08-29T01:39:10.677Z,99.38
2022-08-29T01:40:10.865Z,99.38
2022-08-29T01:41:10.964Z,99.48
2022-08-29T01:42:11.113Z,99.48
2022-08-29T01:43:11.284Z,99.27
2022-08-29T01:44:11.445Z,99.32
2022-08-29T01:45:11.615Z,99.43
2022-08-29T01:46:11.777Z,99.43
2022-08-29T01:47:11.892Z,99.32
2022-08-29T01:48:12.047Z,99.63
2022-08-29T01:49:12.211Z,99.43
2022-08-29T01:50:12.903Z,99.52
2022-08-29T01:51:12.496Z,99.63
2022-08-29T01:52:12.621Z,99.63
2022-08-29T01:53:12.681Z,99.63
2022-08-29T01:54:12.821Z,99.63
2022-08-29T01:55:12.941Z,99.63
2022-08-29T01:56:13.121Z,99.73
2022-08-29T01:57:13.397Z,99.93
2022-08-29T01:58:13.432Z,99.99
2022-08-29T01:59:13.514Z,99.99
2022-08-29T02:00:13.680Z,99.99
2022-08-29T02:01:13.887Z,99.99
2022-08-29T02:02:14.004Z,99.99
2022-08-29T02:03:14.068Z,99.99
2022-08-29T02:04:14.213Z,99.99
2022-08-29T02:05:14.340Z,99.99
2022-08-29T02:06:14.512Z,99.99
2022-08-29T02:07:14.613Z,99.99
2022-08-29T02:08:14.973Z,99.99
2022-08-29T02:09:14.872Z,99.99
2022-08-29T02:10:15.080Z,99.99
2022-08-29T02:11:15.162Z,99.99
2022-08-29T02:12:15.262Z,99.99
2022-08-29T02:13:15.392Z,99.99
2022-08-29T02:14:19.024Z,99.99
2022-08-29T02:15:15.670Z,99.99
2022-08-29T02:16:15.864Z,99.99
2022-08-29T02:17:15.949Z,99.99
2022-08-29T02:18:16.315Z,99.99
2022-08-29T02:19:16.264Z,99.99
2022-08-29T02:20:16.350Z,99.99
2022-08-29T02:21:16.443Z,99.99
2022-08-29T02:22:16.629Z,99.99
2022-08-29T02:23:30.238Z,99.99
2022-08-29T02:24:26.256Z,99.99
2022-08-29T02:25:18.053Z,99.99
2022-08-29T02:26:17.239Z,99.99
2022-08-29T02:27:17.351Z,99.99
2022-08-29T02:28:17.510Z,99.99
2022-08-29T02:29:17.652Z,99.99
2022-08-29T02:30:17.869Z,99.99
2022-08-29T02:31:17.976Z,99.99
2022-08-29T02:32:18.020Z,99.99
2022-08-29T02:33:19.204Z,99.99
2022-08-29T02:34:18.288Z,99.99
2022-08-29T02:35:18.386Z,99.99
2022-08-29T02:36:19.288Z,99.99
2022-08-29T02:37:18.687Z,99.99
2022-08-29T02:38:18.831Z,99.99
2022-08-29T02:39:18.947Z,99.99
2022-08-29T02:40:19.125Z,99.99
2022-08-29T02:41:19.193Z,99.99
2022-08-29T02:42:19.329Z,99.99
2022-08-29T02:43:19.434Z,99.99
2022-08-29T02:44:19.587Z,99.99
2022-08-29T02:45:19.737Z,99.99
2022-08-29T02:46:19.930Z,99.99
2022-08-29T02:47:19.990Z,99.99
2022-08-29T02:48:20.157Z,99.99
2022-08-29T02:49:20.273Z,99.99
2022-08-29T02:50:20.417Z,99.99
2022-08-29T02:51:20.488Z,99.99
2022-08-29T02:52:20.648Z,99.99
2022-08-29T02:53:20.818Z,99.99
2022-08-29T02:54:20.926Z,99.99
2022-08-29T02:55:21.042Z,99.99
2022-08-29T02:56:21.168Z,99.99
2022-08-29T02:57:21.317Z,99.99
2022-08-29T02:58:21.416Z,99.99
2022-08-29T02:59:21.566Z,99.99
2022-08-29T03:00:21.685Z,99.99
2022-08-29T03:01:21.919Z,99.99
2022-08-29T03:02:21.996Z,99.99
2022-08-29T03:03:22.088Z,99.99
2022-08-29T03:04:22.258Z,99.99
2022-08-29T03:05:22.398Z,99.99
2022-08-29T03:06:22.589Z,99.99
2022-08-29T03:07:22.725Z,99.99
2022-08-29T03:08:22.882Z,99.99
2022-08-29T03:09:23.035Z,99.99
2022-08-29T03:10:23.143Z,99.99
2022-08-29T03:11:23.328Z,99.99
2022-08-29T03:12:23.486Z,99.99
2022-08-29T03:13:23.625Z,99.99
2022-08-29T03:14:23.795Z,99.99
2022-08-29T03:15:23.905Z,99.99
2022-08-29T03:16:24.072Z,99.99
2022-08-29T03:17:24.184Z,99.99
2022-08-29T03:18:24.313Z,99.99
2022-08-29T03:19:24.454Z,99.99
2022-08-29T03:20:24.557Z,99.99
2022-08-29T03:21:24.705Z,99.99
2022-08-29T03:22:24.825Z,99.99
2022-08-29T03:23:24.946Z,99.99
2022-08-29T03:24:26.528Z,99.99
2022-08-29T03:25:25.234Z,99.99
2022-08-29T03:26:25.365Z,99.99
2022-08-29T03:27:25.522Z,99.99
2022-08-29T03:28:25.655Z,99.99
2022-08-29T03:29:25.853Z,99.99
2022-08-29T03:30:25.902Z,99.99
2022-08-29T03:31:26.098Z,99.99
2022-08-29T03:32:26.234Z,99.99
2022-08-29T03:33:26.395Z,99.99
2022-08-29T03:34:26.575Z,99.99
2022-08-29T03:35:26.743Z,99.99
2022-08-29T03:36:26.889Z,99.99
2022-08-29T03:37:27.035Z,99.99
2022-08-29T03:38:27.145Z,99.99
2022-08-29T03:39:27.262Z,99.99
2022-08-29T03:40:27.480Z,99.99
2022-08-29T03:41:27.553Z,99.99
2022-08-29T03:42:27.684Z,99.99
2022-08-29T03:43:27.846Z,99.99
2022-08-29T03:44:27.982Z,99.99
2022-08-29T03:45:28.172Z,99.99
2022-08-29T03:46:28.341Z,99.99
2022-08-29T03:47:28.463Z,99.99
2022-08-29T03:48:28.627Z,99.99
2022-08-29T03:49:28.805Z,99.99
2022-08-29T03:50:28.945Z,99.99
2022-08-29T03:51:29.583Z,99.99
2022-08-29T03:52:29.204Z,99.99
2022-08-29T03:53:30.829Z,99.99
2022-08-29T03:54:29.441Z,99.99
2022-08-29T03:55:29.580Z,99.99
2022-08-29T03:56:29.751Z,99.99
2022-08-29T03:57:31.356Z,99.99
2022-08-29T03:58:30.022Z,99.99
2022-08-29T03:59:30.172Z,99.99
2022-08-29T04:00:30.303Z,99.99
2022-08-29T04:01:30.489Z,99.99
2022-08-29T04:02:30.574Z,99.99
2022-08-29T04:03:31.110Z,99.99
2022-08-29T04:04:30.869Z,99.99
2022-08-29T04:05:30.990Z,99.99
2022-08-29T04:06:31.130Z,99.99
2022-08-29T04:07:31.220Z,99.99
2022-08-29T04:08:31.784Z,99.99
2022-08-29T04:09:31.534Z,99.99
2022-08-29T04:10:31.630Z,99.99
2022-08-29T04:11:31.802Z,99.99
2022-08-29T04:12:31.961Z,99.99
2022-08-29T04:13:32.079Z,99.99
2022-08-29T04:14:32.222Z,99.99
2022-08-29T04:15:32.332Z,99.99
2022-08-29T04:16:32.552Z,99.99
2022-08-29T04:17:32.601Z,99.99
2022-08-29T04:18:32.740Z,99.99
2022-08-29T04:19:32.819Z,99.99
2022-08-29T04:20:32.990Z,99.99
2022-08-29T04:21:33.120Z,99.99
2022-08-29T04:22:33.287Z,99.99
2022-08-29T04:23:33.418Z,99.99
2022-08-29T04:24:33.543Z,99.99
2022-08-29T04:25:36.831Z,99.99
2022-08-29T04:26:37.787Z,99.99
2022-08-29T04:27:33.939Z,99.99
2022-08-29T04:28:34.078Z,99.99
2022-08-29T04:29:34.249Z,99.99
2022-08-29T04:30:34.353Z,99.99
2022-08-29T04:31:34.583Z,99.99
2022-08-29T04:32:34.687Z,99.99
2022-08-29T04:33:34.774Z,99.99
2022-08-29T04:34:34.910Z,99.99
2022-08-29T04:35:35.029Z,99.99
2022-08-29T04:36:35.174Z,99.99
2022-08-29T04:37:35.327Z,99.99
2022-08-29T04:38:35.467Z,99.99
2022-08-29T04:39:35.629Z,99.99
2022-08-29T04:40:35.832Z,99.99
2022-08-29T04:41:35.896Z,99.99
2022-08-29T04:42:36.068Z,99.99
2022-08-29T04:43:36.197Z,99.99
2022-08-29T04:44:36.337Z,99.99
2022-08-29T04:45:36.456Z,99.99
2022-08-29T04:46:36.673Z,99.99
2022-08-29T04:47:36.757Z,99.99
2022-08-29T04:48:36.886Z,99.99
2022-08-29T04:49:37.037Z,99.99
2022-08-29T04:50:37.172Z,99.99
2022-08-29T04:51:37.318Z,99.99
2022-08-29T04:52:37.498Z,99.99
2022-08-29T04:53:37.629Z,99.99
2022-08-29T04:54:37.753Z,99.99
2022-08-29T04:55:37.867Z,99.99
2022-08-29T04:56:37.995Z,99.99
2022-08-29T04:57:38.094Z,99.99
2022-08-29T04:58:38.246Z,99.99
2022-08-29T04:59:38.386Z,99.99
2022-08-29T05:00:38.528Z,99.99
2022-08-29T05:01:38.738Z,99.99
2022-08-29T05:02:38.888Z,99.99
2022-08-29T05:03:38.975Z,99.99
2022-08-29T05:04:39.123Z,99.99
2022-08-29T05:05:39.275Z,99.99
2022-08-29T05:06:39.451Z,99.99
2022-08-29T05:07:39.534Z,99.99
2022-08-29T05:08:39.682Z,99.99
2022-08-29T05:09:39.772Z,99.99
2022-08-29T05:10:39.955Z,99.99
2022-08-29T05:11:40.022Z,99.99
2022-08-29T05:12:40.184Z,99.99
2022-08-29T05:13:42.648Z,99.99
2022-08-29T05:14:40.461Z,99.99
2022-08-29T05:15:40.601Z,99.99
2022-08-29T05:16:40.733Z,99.99
2022-08-29T05:17:40.814Z,99.99
2022-08-29T05:18:40.964Z,99.99
2022-08-29T05:19:42.888Z,99.99
2022-08-29T05:20:41.234Z,99.99
2022-08-29T05:21:41.372Z,99.99
2022-08-29T05:22:41.484Z,99.99
2022-08-29T05:23:41.603Z,99.99
2022-08-29T05:24:41.726Z,99.99
2022-08-29T05:25:41.821Z,99.99
2022-08-29T05:26:41.973Z,99.99
2022-08-29T05:27:42.120Z,99.99
2022-08-29T05:28:42.272Z,99.99
2022-08-29T05:29:42.481Z,99.99
2022-08-29T05:30:42.550Z,99.99
2022-08-29T05:31:45.291Z,99.99
2022-08-29T05:32:42.720Z,99.99
2022-08-29T05:33:42.867Z,99.99
2022-08-29T05:34:43.014Z,99.99
2022-08-29T05:35:43.112Z,99.99
2022-08-29T05:36:43.261Z,99.99
2022-08-29T05:37:43.352Z,99.99
2022-08-29T05:38:43.541Z,99.99
2022-08-29T05:39:43.650Z,99.99
2022-08-29T05:40:43.805Z,99.99
2022-08-29T05:41:43.841Z,99.99
2022-08-29T05:42:43.979Z,99.99
2022-08-29T05:43:44.099Z,99.99
2022-08-29T05:44:44.242Z,99.99
2022-08-29T05:45:44.321Z,99.99
2022-08-29T05:46:44.544Z,99.99
2022-08-29T05:47:44.591Z,99.99
2022-08-29T05:48:44.763Z,99.99
2022-08-29T05:49:44.841Z,99.99
2022-08-29T05:50:44.991Z,99.99
2022-08-29T05:51:45.103Z,99.99
2022-08-29T05:52:45.239Z,99.99
2022-08-29T05:53:45.398Z,99.99
2022-08-29T05:54:45.492Z,99.99
2022-08-29T05:55:45.599Z,99.99
2022-08-29T05:56:45.740Z,99.99
2022-08-29T05:57:45.889Z,99.99
2022-08-29T05:58:46.050Z,99.99
2022-08-29T05:59:46.136Z,99.99
2022-08-29T06:00:46.704Z,99.68
2022-08-29T06:01:46.390Z,99.89
2022-08-29T06:02:46.642Z,99.89
2022-08-29T06:03:46.752Z,99.89
2022-08-29T06:04:46.802Z,99.99
2022-08-29T06:05:46.899Z,99.89
2022-08-29T06:06:47.038Z,99.84
2022-08-29T06:07:47.173Z,99.74
2022-08-29T06:08:47.349Z,99.54
2022-08-29T06:09:47.456Z,99.39
2022-08-29T06:10:47.529Z,99.08
2022-08-29T06:11:47.679Z,98.57
2022-08-29T06:12:47.815Z,98.57
2022-08-29T06:13:47.957Z,98.57
2022-08-29T06:14:50.574Z,98.27
2022-08-29T06:15:48.249Z,98.22
2022-08-29T06:16:48.343Z,98.32
2022-08-29T06:17:48.517Z,98.02
2022-08-29T06:18:48.610Z,97.77
2022-08-29T06:19:48.737Z,97.36
2022-08-29T06:20:48.816Z,97.16
2022-08-29T06:21:48.959Z,96.95
2022-08-29T06:22:49.097Z,96.84
2022-08-29T06:23:49.245Z,96.70
2022-08-29T06:24:49.389Z,96.50
2022-08-29T06:25:49.518Z,96.50
2022-08-29T06:26:49.632Z,96.30
2022-08-29T06:27:49.738Z,96.39
2022-08-29T06:28:49.869Z,96.35
2022-08-29T06:29:50.038Z,96.66
2022-08-29T06:30:50.196Z,96.35
2022-08-29T06:31:50.265Z,96.35
2022-08-29T06:32:50.401Z,95.90
2022-08-29T06:33:50.547Z,95.90
2022-08-29T06:34:50.659Z,95.49
2022-08-29T06:35:50.784Z,95.29
2022-08-29T06:36:50.895Z,94.84
2022-08-29T06:37:51.028Z,94.63
2022-08-29T06:38:51.141Z,94.59
2022-08-29T06:39:51.287Z,94.48
2022-08-29T06:40:51.439Z,94.38
2022-08-29T06:41:51.546Z,94.13
2022-08-29T06:42:51.682Z,93.73
2022-08-29T06:43:51.832Z,93.07
2022-08-29T06:44:51.956Z,92.67
2022-08-29T06:45:52.148Z,92.36
2022-08-29T06:46:52.226Z,91.91
2022-08-29T06:47:52.396Z,91.71
2022-08-29T06:48:52.489Z,91.36
2022-08-29T06:49:52.644Z,91.06
2022-08-29T06:50:52.703Z,90.35
2022-08-29T06:51:57.364Z,90.25
2022-08-29T06:52:55.671Z,90.00
2022-08-29T06:53:53.067Z,89.80
2022-08-29T06:54:53.223Z,89.50
2022-08-29T06:55:53.432Z,88.99
2022-08-29T06:56:53.470Z,88.99
2022-08-29T06:57:53.616Z,88.84
2022-08-29T06:58:53.712Z,88.95
2022-08-29T06:59:53.858Z,88.89
2022-08-29T07:00:53.977Z,88.99
2022-08-29T07:01:54.144Z,89.29
2022-08-29T07:02:54.259Z,89.35
2022-08-29T07:03:54.338Z,89.45
2022-08-29T07:04:54.467Z,89.35
2022-08-29T07:05:54.543Z,89.35
2022-08-29T07:06:54.677Z,89.15
2022-08-29T07:07:54.818Z,89.35
2022-08-29T07:08:56.211Z,88.90
2022-08-29T07:09:55.104Z,88.70
2022-08-29T07:10:55.201Z,88.70
2022-08-29T07:11:55.358Z,88.60
2022-08-29T07:12:55.458Z,88.80
2022-08-29T07:13:55.607Z,88.49
2022-08-29T07:14:55.709Z,88.35
2022-08-29T07:15:55.918Z,88.05
2022-08-29T07:16:55.953Z,87.65
2022-08-29T07:17:59.857Z,87.65
2022-08-29T07:18:56.244Z,86.83
2022-08-29T07:19:56.358Z,86.90
2022-08-29T07:20:56.453Z,86.90
2022-08-29T07:21:58.331Z,86.59
2022-08-29T07:22:56.696Z,86.35
2022-08-29T07:23:56.855Z,85.74
2022-08-29T07:24:56.948Z,85.33
2022-08-29T07:25:57.108Z,84.69
2022-08-29T07:26:57.197Z,84.48
2022-08-29T07:27:57.336Z,84.39
2022-08-29T07:28:57.463Z,84.14
2022-08-29T07:29:57.596Z,83.84
2022-08-29T07:30:57.745Z,83.19
2022-08-29T07:31:57.863Z,82.99
2022-08-29T07:32:57.952Z,82.99
2022-08-29T07:34:02.726Z,82.24
2022-08-29T07:34:59.224Z,82.04
2022-08-29T07:36:01.338Z,81.80
2022-08-29T07:36:58.452Z,81.30
2022-08-29T07:37:58.616Z,80.45
2022-08-29T07:38:58.705Z,80.05
2022-08-29T07:39:58.928Z,80.05
2022-08-29T07:40:58.993Z,79.64
2022-08-29T07:41:59.157Z,78.90
2022-08-29T07:42:59.282Z,78.80
2022-08-29T07:43:59.335Z,79.00
2022-08-29T07:44:59.532Z,79.10
2022-08-29T07:45:59.650Z,77.99
2022-08-29T07:46:59.717Z,77.69
2022-08-29T07:47:59.887Z,77.66
2022-08-29T07:48:59.967Z,77.45
2022-08-29T07:50:00.137Z,76.24
2022-08-29T07:51:00.257Z,75.60
2022-08-29T07:52:00.410Z,75.16
2022-08-29T07:53:00.555Z,73.85
2022-08-29T07:54:00.652Z,73.41
2022-08-29T07:55:00.737Z,72.57
2022-08-29T07:56:00.886Z,71.43
2022-08-29T07:57:00.987Z,69.79
2022-08-29T07:58:01.126Z,68.75
2022-08-29T07:59:01.293Z,69.15
2022-08-29T08:00:01.379Z,68.12
2022-08-29T08:01:01.601Z,67.68
2022-08-29T08:02:01.728Z,67.28
2022-08-29T08:03:01.806Z,66.08
2022-08-29T08:04:01.887Z,66.41
2022-08-29T08:05:01.987Z,66.81
2022-08-29T08:06:03.906Z,66.47
2022-08-29T08:07:03.212Z,65.77
2022-08-29T08:08:08.855Z,65.04
2022-08-29T08:09:03.469Z,64.61
2022-08-29T08:10:02.608Z,63.78
2022-08-29T08:11:02.706Z,63.07
2022-08-29T08:12:07.681Z,63.37
2022-08-29T08:13:03.972Z,63.50
2022-08-29T08:14:03.108Z,63.70
2022-08-29T08:15:03.203Z,63.47
2022-08-29T08:16:03.357Z,63.20
2022-08-29T08:17:03.629Z,62.90
2022-08-29T08:18:03.607Z,63.40
2022-08-29T08:19:03.724Z,63.50
2022-08-29T08:20:03.886Z,63.70
2022-08-29T08:21:03.964Z,63.70
2022-08-29T08:22:04.103Z,63.40
2022-08-29T08:23:04.248Z,63.40
2022-08-29T08:24:04.413Z,63.67
2022-08-29T08:25:11.599Z,63.07
2022-08-29T08:26:04.648Z,63.24
2022-08-29T08:27:05.510Z,63.34
2022-08-29T08:28:04.888Z,62.64
2022-08-29T08:29:05.020Z,62.51
2022-08-29T08:30:05.181Z,62.61
2022-08-29T08:31:06.599Z,62.48
2022-08-29T08:32:05.436Z,61.38
2022-08-29T08:33:05.565Z,60.98
2022-08-29T08:34:05.883Z,61.21
2022-08-29T08:35:05.801Z,61.21
2022-08-29T08:36:05.938Z,61.91
2022-08-29T08:37:06.077Z,62.41
2022-08-29T08:38:06.218Z,62.01
2022-08-29T08:39:06.362Z,62.51
2022-08-29T08:40:06.485Z,62.41
2022-08-29T08:41:06.597Z,62.41
2022-08-29T08:42:06.678Z,62.68
2022-08-29T08:43:06.931Z,62.18
2022-08-29T08:44:06.991Z,61.78
2022-08-29T08:45:07.051Z,62.28
2022-08-29T08:46:07.196Z,62.08
2022-08-29T08:47:07.288Z,61.38
2022-08-29T08:48:07.459Z,61.34
2022-08-29T08:49:07.543Z,62.04
2022-08-29T08:50:07.678Z,62.34
2022-08-29T08:51:07.815Z,62.77
2022-08-29T08:52:07.959Z,63.33
2022-08-29T08:53:08.130Z,64.24
2022-08-29T08:54:08.219Z,63.81
2022-08-29T08:55:08.367Z,63.31
2022-08-29T08:56:08.520Z,62.80
2022-08-29T08:57:08.622Z,63.24
2022-08-29T08:58:08.803Z,62.01
2022-08-29T08:59:08.927Z,61.38
2022-08-29T09:00:09.081Z,60.78
2022-08-29T09:01:09.266Z,60.88
2022-08-29T09:02:09.356Z,60.58
2022-08-29T09:03:09.431Z,60.88
2022-08-29T09:04:09.580Z,60.35
2022-08-29T09:05:09.713Z,59.75
2022-08-29T09:06:09.863Z,58.92
2022-08-29T09:07:09.952Z,59.85
2022-08-29T09:08:10.113Z,59.55
2022-08-29T09:09:10.252Z,60.15
2022-08-29T09:10:10.384Z,59.28
2022-08-29T09:11:10.474Z,59.48
2022-08-29T09:12:10.582Z,60.05
2022-08-29T09:13:10.790Z,59.72
2022-08-29T09:14:10.840Z,59.09
2022-08-29T09:15:13.422Z,57.44
2022-08-29T09:16:11.126Z,56.59
2022-08-29T09:17:11.203Z,55.66
2022-08-29T09:18:13.530Z,54.91
2022-08-29T09:19:11.392Z,54.58
2022-08-29T09:20:11.533Z,53.89
2022-08-29T09:21:37.100Z,53.61
2022-08-29T09:22:12.822Z,53.81
2022-08-29T09:23:12.019Z,53.49
2022-08-29T09:24:12.063Z,53.89
2022-08-29T09:25:12.213Z,52.79
2022-08-29T09:26:12.375Z,53.02
2022-08-29T09:27:12.451Z,53.11
2022-08-29T09:28:12.593Z,52.72
2022-08-29T09:29:12.709Z,52.17
2022-08-29T09:30:12.863Z,52.34
2022-08-29T09:31:12.984Z,52.57
2022-08-29T09:32:13.127Z,53.19
2022-08-29T09:33:13.186Z,53.47
2022-08-29T09:34:13.338Z,54.79
2022-08-29T09:35:13.495Z,55.51
2022-08-29T09:36:13.602Z,55.79
2022-08-29T09:37:13.711Z,55.29
2022-08-29T09:38:13.860Z,55.81
2022-08-29T09:39:13.965Z,54.24
2022-08-29T09:40:16.763Z,52.94
2022-08-29T09:41:15.203Z,51.42
2022-08-29T09:42:14.404Z,50.68
2022-08-29T09:43:14.621Z,50.08
2022-08-29T09:44:14.603Z,50.60
2022-08-29T09:45:14.724Z,50.73
2022-08-29T09:46:14.910Z,50.65
2022-08-29T09:47:15.005Z,51.15
2022-08-29T09:48:15.111Z,50.73
2022-08-29T09:49:15.245Z,51.87
2022-08-29T09:50:15.393Z,51.70
2022-08-29T09:51:15.498Z,52.81
2022-08-29T09:52:15.678Z,53.14
2022-08-29T09:53:25.071Z,53.34
2022-08-29T09:54:16.979Z,53.71
2022-08-29T09:55:16.021Z,52.32
2022-08-29T09:56:16.170Z,52.92
2022-08-29T09:57:16.297Z,52.84
2022-08-29T09:58:16.385Z,53.79
2022-08-29T09:59:16.526Z,53.86
2022-08-29T10:00:16.671Z,53.79
2022-08-29T10:01:16.829Z,53.86
2022-08-29T10:02:16.992Z,53.52
2022-08-29T10:03:17.068Z,53.09
2022-08-29T10:04:17.147Z,51.67
2022-08-29T10:05:17.254Z,51.65
2022-08-29T10:06:17.397Z,49.51
2022-08-29T10:07:17.554Z,49.68
2022-08-29T10:08:17.667Z,48.62
2022-08-29T10:09:17.775Z,47.90
2022-08-29T10:10:17.915Z,48.05
2022-08-29T10:11:18.046Z,48.42
2022-08-29T10:12:18.235Z,48.10
2022-08-29T10:13:18.316Z,46.89
2022-08-29T10:14:18.454Z,47.46
2022-08-29T10:15:39.592Z,47.04
2022-08-29T10:16:19.797Z,46.97
2022-08-29T10:17:18.840Z,46.35
2022-08-29T10:18:18.986Z,46.15
2022-08-29T10:19:19.126Z,46.15
2022-08-29T10:20:19.296Z,46.17
2022-08-29T10:21:19.382Z,46.25
2022-08-29T10:23:19.635Z,45.00
2022-08-29T10:24:19.899Z,43.66
2022-08-29T10:25:19.900Z,43.62
2022-08-29T10:26:19.995Z,42.96
2022-08-29T10:27:20.156Z,44.01
2022-08-29T10:28:20.256Z,44.50
2022-08-29T10:29:20.405Z,44.94
2022-08-29T10:30:20.563Z,45.73
2022-08-29T10:31:20.744Z,45.31
2022-08-29T10:32:20.821Z,45.04
2022-08-29T10:33:20.935Z,45.75
2022-08-29T10:34:21.162Z,46.09
2022-08-29T10:35:21.168Z,47.21
2022-08-29T10:36:21.270Z,47.73
2022-08-29T10:37:21.429Z,48.32
2022-08-29T10:38:22.268Z,48.96
2022-08-29T10:39:21.673Z,49.58
2022-08-29T10:40:21.827Z,49.78
2022-08-29T10:41:21.890Z,50.13
2022-08-29T10:42:21.981Z,50.63
2022-08-29T10:43:22.128Z,51.22
2022-08-29T10:44:22.271Z,51.03
2022-08-29T10:45:22.466Z,51.12
2022-08-29T10:46:22.570Z,51.30
2022-08-29T10:47:22.697Z,49.86
2022-08-29T10:48:22.784Z,49.32
2022-08-29T10:49:22.942Z,48.40
2022-08-29T10:50:43.049Z,48.32
2022-08-29T10:51:24.191Z,48.90
2022-08-29T10:52:23.391Z,48.10
2022-08-29T10:53:23.431Z,48.32
2022-08-29T10:54:23.582Z,48.20
2022-08-29T10:55:23.729Z,47.98
2022-08-29T10:56:23.839Z,46.82
2022-08-29T10:57:23.990Z,45.74
2022-08-29T10:58:24.108Z,43.60
2022-08-29T10:59:24.263Z,42.60
2022-08-29T11:00:24.359Z,41.96
2022-08-29T11:01:24.546Z,42.74
2022-08-29T11:02:24.652Z,44.80
2022-08-29T11:03:24.764Z,46.15
2022-08-29T11:04:24.946Z,47.28
2022-08-29T11:05:25.018Z,47.28
2022-08-29T11:06:25.289Z,47.63
2022-08-29T11:07:25.312Z,46.33
2022-08-29T11:08:25.400Z,46.11
2022-08-29T11:09:25.563Z,46.08
2022-08-29T11:10:25.688Z,45.37
2022-08-29T11:11:25.783Z,44.54
2022-08-29T11:12:25.903Z,43.74
2022-08-29T11:13:26.011Z,43.11
2022-08-29T11:14:26.154Z,42.47
2022-08-29T11:15:26.305Z,40.66
2022-08-29T11:16:26.444Z,40.64
2022-08-29T11:17:26.571Z,40.74
2022-08-29T11:18:26.667Z,41.25
2022-08-29T11:19:26.774Z,42.54
2022-08-29T11:20:26.854Z,44.80
2022-08-29T11:21:27.372Z,45.43
2022-08-29T11:22:27.139Z,47.61
2022-08-29T11:23:27.226Z,49.46
2022-08-29T11:24:29.732Z,50.16
2022-08-29T11:25:28.446Z,49.04
2022-08-29T11:26:27.614Z,49.63
2022-08-29T11:27:27.722Z,49.24
2022-08-29T11:28:27.794Z,49.63
2022-08-29T11:29:27.946Z,49.24
2022-08-29T11:30:28.044Z,49.04
2022-08-29T11:31:28.235Z,49.34
2022-08-29T11:32:28.335Z,49.24
2022-08-29T11:33:28.454Z,48.38
2022-08-29T11:34:28.562Z,46.72
2022-08-29T11:35:28.679Z,45.00
2022-08-29T11:36:28.787Z,43.90
2022-08-29T11:37:28.934Z,42.14
2022-08-29T11:38:29.047Z,39.82
2022-08-29T11:39:29.165Z,39.29
2022-08-29T11:41:30.618Z,38.17
2022-08-29T11:43:30.654Z,39.19
2022-08-29T11:44:29.768Z,39.70
2022-08-29T11:45:37.355Z,39.60
2022-08-29T11:46:31.069Z,39.09
2022-08-29T11:47:30.116Z,38.78
2022-08-29T11:48:30.248Z,39.00
2022-08-29T11:49:30.415Z,38.68
2022-08-29T11:50:30.494Z,39.29
2022-08-29T11:51:30.647Z,38.29
2022-08-29T11:52:30.808Z,38.66
2022-08-29T11:53:30.921Z,37.98
2022-08-29T11:54:31.047Z,38.15
2022-08-29T11:55:31.155Z,36.82
2022-08-29T11:56:31.260Z,36.96
2022-08-29T11:57:31.417Z,37.54
2022-08-29T11:58:31.508Z,37.86
2022-08-29T11:59:31.676Z,37.35
2022-08-29T12:00:31.770Z,37.86
2022-08-29T12:01:31.917Z,38.15
2022-08-29T12:02:32.031Z,36.53
2022-08-29T12:03:32.515Z,36.53
2022-08-29T12:04:32.329Z,37.02
2022-08-29T12:05:32.418Z,36.74
2022-08-29T12:06:32.562Z,36.72
2022-08-29T12:07:32.806Z,36.30
2022-08-29T12:08:37.346Z,36.02
2022-08-29T12:09:33.968Z,36.02
2022-08-29T12:10:33.110Z,36.32
2022-08-29T12:11:33.290Z,36.92
2022-08-29T12:12:33.369Z,36.20
2022-08-29T12:13:33.509Z,36.08
2022-08-29T12:14:37.731Z,35.07
2022-08-29T12:15:33.747Z,35.28
2022-08-29T12:16:33.901Z,35.77
2022-08-29T12:17:58.236Z,36.00
2022-08-29T12:18:36.663Z,35.79
2022-08-29T12:19:34.290Z,35.79
2022-08-29T12:20:34.417Z,35.46
2022-08-29T12:21:34.538Z,35.35
2022-08-29T12:22:34.686Z,34.77
2022-08-29T12:23:35.699Z,35.61
2022-08-29T12:24:34.908Z,36.02
2022-08-29T12:25:35.010Z,37.05
2022-08-29T12:26:35.118Z,36.82
2022-08-29T12:27:35.312Z,36.41
2022-08-29T12:28:35.390Z,37.23
2022-08-29T12:29:41.250Z,37.00
2022-08-29T12:30:36.772Z,36.20
2022-08-29T12:31:35.848Z,36.00
2022-08-29T12:32:39.773Z,35.91
2022-08-29T12:33:36.038Z,36.08
2022-08-29T12:34:36.161Z,35.87
2022-08-29T12:35:36.320Z,35.38
2022-08-29T12:36:36.410Z,35.71
2022-08-29T12:37:36.550Z,36.24
2022-08-29T12:38:41.418Z,36.51
2022-08-29T12:39:37.832Z,36.07
2022-08-29T12:40:37.004Z,35.69
2022-08-29T12:41:37.051Z,36.22
2022-08-29T12:42:37.169Z,36.18
2022-08-29T12:43:37.321Z,35.79
2022-08-29T12:44:37.440Z,35.48
2022-08-29T12:45:37.592Z,36.74
2022-08-29T12:46:37.748Z,37.19
2022-08-29T12:47:37.873Z,36.47
2022-08-29T12:48:37.973Z,35.27
2022-08-29T12:49:38.072Z,35.25
2022-08-29T12:50:38.242Z,34.34
2022-08-29T12:51:38.384Z,33.65
2022-08-29T12:52:38.472Z,34.36
2022-08-29T12:53:38.620Z,34.77
2022-08-29T12:54:38.762Z,34.88
2022-08-29T12:55:38.924Z,35.28
2022-08-29T12:56:39.049Z,35.69
2022-08-29T12:57:39.173Z,35.71